createdAt,value
2022-08-12T00:02:04.643Z,22.50
2022-08-12T00:05:12.785Z,22.50
2022-08-12T00:08:36.652Z,22.50
2022-08-12T00:11:53.643Z,22.50
2022-08-12T00:15:10.473Z,22.50
2022-08-12T00:18:32.600Z,22.50
2022-08-12T00:21:51.763Z,22.50
2022-08-12T00:25:07.562Z,22.44
2022-08-12T00:28:20.047Z,22.44
2022-08-12T00:31:35.140Z,22.44
2022-08-12T00:34:48.522Z,22.44
2022-08-12T00:38:03.123Z,22.44
2022-08-12T00:41:15.257Z,22.44
2022-08-12T00:44:11.688Z,22.44
2022-08-12T00:47:07.838Z,22.44
2022-08-12T00:50:20.049Z,22.44
2022-08-12T00:53:12.976Z,22.44
2022-08-12T00:56:09.919Z,22.44
2022-08-12T00:59:05.401Z,22.38
2022-08-12T01:02:11.322Z,22.38
2022-08-12T01:05:46.910Z,22.31
2022-08-12T01:09:23.742Z,22.31
2022-08-12T01:12:30.360Z,22.31
2022-08-12T01:15:32.626Z,22.31
2022-08-12T01:18:33.770Z,22.31
2022-08-12T01:21:58.550Z,22.31
2022-08-12T01:24:59.602Z,22.31
2022-08-12T01:27:56.139Z,22.31
2022-08-12T01:30:53.496Z,22.31
2022-08-12T01:33:57.446Z,22.25
2022-08-12T01:36:57.833Z,22.25
2022-08-12T01:40:35.317Z,22.25
2022-08-12T01:43:15.996Z,22.25
2022-08-12T01:46:23.497Z,22.25
2022-08-12T01:49:51.754Z,22.25
2022-08-12T01:52:59.283Z,22.25
2022-08-12T01:55:53.517Z,22.25
2022-08-12T01:59:05.630Z,22.25
2022-08-12T02:02:10.474Z,22.25
2022-08-12T02:05:35.704Z,22.25
2022-08-12T02:08:57.511Z,22.31
2022-08-12T02:12:06.062Z,22.31
2022-08-12T02:15:17.372Z,22.31
2022-08-12T02:18:33.925Z,22.31
2022-08-12T02:21:36.836Z,22.31
2022-08-12T02:24:36.044Z,22.31
2022-08-12T02:27:45.171Z,22.31
2022-08-12T02:30:42.462Z,22.31
2022-08-12T02:33:39.014Z,22.31
2022-08-12T02:36:33.405Z,22.31
2022-08-12T02:39:31.925Z,22.31
2022-08-12T02:42:27.549Z,22.25
2022-08-12T02:45:27.110Z,22.25
2022-08-12T02:48:32.667Z,22.25
2022-08-12T02:51:30.637Z,22.25
2022-08-12T02:54:25.001Z,22.25
2022-08-12T02:57:20.147Z,22.25
2022-08-12T03:00:19.085Z,22.31
2022-08-12T03:03:18.308Z,22.25
2022-08-12T03:06:22.886Z,22.25
2022-08-12T03:09:24.672Z,22.25
2022-08-12T03:12:31.467Z,22.25
2022-08-12T03:15:51.749Z,22.25
2022-08-12T03:18:52.757Z,22.25
2022-08-12T03:22:08.750Z,22.25
2022-08-12T03:25:05.510Z,22.19
2022-08-12T03:28:04.807Z,22.25
2022-08-12T03:31:03.238Z,22.19
2022-08-12T03:34:05.806Z,22.19
2022-08-12T03:37:05.616Z,22.25
2022-08-12T03:40:09.358Z,22.25
2022-08-12T03:43:26.359Z,22.25
2022-08-12T03:46:48.763Z,22.19
2022-08-12T03:50:06.533Z,22.19
2022-08-12T03:53:23.654Z,22.25
2022-08-12T03:56:40.166Z,22.25
2022-08-12T03:59:56.387Z,22.25
2022-08-12T04:03:01.927Z,22.25
2022-08-12T04:06:05.723Z,22.25
2022-08-12T04:09:16.760Z,22.25
2022-08-12T04:12:34.584Z,22.31
2022-08-12T04:15:35.271Z,22.31
2022-08-12T04:18:40.934Z,22.31
2022-08-12T04:22:01.123Z,22.31
2022-08-12T04:25:02.065Z,22.31
2022-08-12T04:28:11.349Z,22.31
2022-08-12T04:31:14.391Z,22.31
2022-08-12T04:34:15.870Z,22.31
2022-08-12T04:37:17.641Z,22.31
2022-08-12T04:40:17.857Z,22.31
2022-08-12T04:44:00.078Z,22.31
2022-08-12T04:46:52.275Z,22.31
2022-08-12T04:49:51.860Z,22.31
2022-08-12T04:52:50.989Z,22.31
2022-08-12T04:55:48.837Z,22.31
2022-08-12T04:58:52.477Z,22.31
2022-08-12T05:02:02.687Z,22.31
2022-08-12T05:05:12.663Z,22.31
2022-08-12T05:08:28.878Z,22.31
2022-08-12T05:11:32.705Z,22.31
2022-08-12T05:14:42.770Z,22.31
2022-08-12T05:17:48.210Z,22.31
2022-08-12T05:20:54.943Z,22.25
2022-08-12T05:23:56.232Z,22.25
2022-08-12T05:27:02.294Z,22.19
2022-08-12T05:30:06.721Z,22.19
2022-08-12T05:33:12.912Z,22.13
2022-08-12T05:36:21.269Z,22.13
2022-08-12T05:39:28.511Z,22.06
2022-08-12T05:42:32.557Z,22.06
2022-08-12T05:45:33.550Z,22.06
2022-08-12T05:48:36.219Z,22.06
2022-08-12T05:51:44.838Z,22.06
2022-08-12T05:54:56.996Z,22.06
2022-08-12T05:58:06.908Z,22.06
2022-08-12T06:02:11.715Z,22.06
2022-08-12T06:04:35.741Z,22.06
2022-08-12T06:08:02.017Z,22.06
2022-08-12T06:10:59.234Z,22.06
2022-08-12T06:14:04.895Z,22.06
2022-08-12T06:17:12.039Z,22.06
2022-08-12T06:20:27.290Z,22.06
2022-08-12T06:23:46.817Z,22.06
2022-08-12T06:26:48.161Z,22.06
2022-08-12T06:30:10.147Z,22.06
2022-08-12T06:33:21.893Z,22.06
2022-08-12T06:36:34.993Z,22.06
2022-08-12T06:39:37.876Z,22.06
2022-08-12T06:42:55.642Z,22.06
2022-08-12T06:45:55.571Z,22.13
2022-08-12T06:49:05.966Z,22.13
2022-08-12T06:52:06.478Z,22.13
2022-08-12T06:55:05.845Z,22.13
2022-08-12T06:58:10.825Z,22.13
2022-08-12T07:01:17.017Z,22.13
2022-08-12T07:04:36.695Z,22.19
2022-08-12T07:07:44.069Z,22.19
2022-08-12T07:10:54.925Z,22.19
2022-08-12T07:14:11.437Z,22.19
2022-08-12T07:17:21.716Z,22.25
2022-08-12T07:20:51.332Z,22.25
2022-08-12T07:23:50.541Z,22.25
2022-08-12T07:26:51.027Z,22.31
2022-08-12T07:30:08.261Z,22.31
2022-08-12T07:33:15.352Z,22.31
2022-08-12T07:36:16.402Z,22.31
2022-08-12T07:39:30.867Z,22.38
2022-08-12T07:42:37.676Z,22.38
2022-08-12T07:45:38.698Z,22.44
2022-08-12T07:48:50.064Z,22.44
2022-08-12T07:51:52.030Z,22.44
2022-08-12T07:54:55.041Z,22.50
2022-08-12T07:58:01.421Z,22.50
2022-08-12T08:01:11.823Z,22.50
2022-08-12T08:04:47.096Z,22.50
2022-08-12T08:07:53.902Z,22.56
2022-08-12T08:11:21.668Z,22.56
2022-08-12T08:14:28.030Z,22.63
2022-08-12T08:17:39.796Z,22.63
2022-08-12T08:20:55.944Z,22.63
2022-08-12T08:24:17.843Z,22.69
2022-08-12T08:27:23.821Z,22.69
2022-08-12T08:30:29.043Z,22.75
2022-08-12T08:34:04.205Z,22.75
2022-08-12T08:36:58.997Z,22.81
2022-08-12T08:40:24.862Z,22.81
2022-08-12T08:43:43.892Z,22.81
2022-08-12T08:46:46.952Z,22.88
2022-08-12T08:49:53.764Z,22.88
2022-08-12T08:53:00.860Z,22.94
2022-08-12T08:56:12.067Z,22.94
2022-08-12T08:59:27.353Z,23.00
2022-08-12T09:02:34.037Z,23.00
2022-08-12T09:06:02.289Z,23.00
2022-08-12T09:09:13.214Z,23.06
2022-08-12T09:12:32.747Z,23.13
2022-08-12T09:19:27.769Z,23.13
2022-08-12T09:22:39.173Z,23.19
2022-08-12T09:25:48.408Z,23.19
2022-08-12T09:29:02.756Z,23.25
2022-08-12T09:32:56.385Z,23.25
2022-08-12T09:36:04.384Z,23.31
2022-08-12T09:40:05.491Z,23.31
2022-08-12T09:43:16.072Z,23.31
2022-08-12T09:46:31.110Z,23.38
2022-08-12T09:49:42.609Z,23.38
2022-08-12T09:52:56.930Z,23.38
2022-08-12T09:56:06.991Z,23.38
2022-08-12T10:00:16.137Z,23.38
2022-08-12T10:03:31.429Z,23.44
2022-08-12T10:06:55.301Z,23.44
2022-08-12T10:10:08.253Z,23.44
2022-08-12T10:13:45.010Z,23.50
2022-08-12T10:17:02.275Z,23.50
2022-08-12T10:20:12.125Z,23.50
2022-08-12T10:23:13.129Z,23.56
2022-08-12T10:26:39.044Z,23.63
2022-08-12T10:30:38.784Z,23.63
2022-08-12T10:33:31.034Z,23.63
2022-08-12T10:36:44.371Z,23.63
2022-08-12T10:40:05.704Z,23.69
2022-08-12T10:43:55.559Z,23.69
2022-08-12T10:47:26.578Z,23.69
2022-08-12T10:51:00.855Z,23.75
2022-08-12T10:54:00.723Z,23.75
2022-08-12T10:58:12.714Z,23.75
2022-08-12T11:01:26.162Z,23.81
2022-08-12T11:04:39.497Z,23.81
2022-08-12T11:08:36.209Z,23.88
2022-08-12T11:12:36.138Z,23.88
2022-08-12T11:14:55.083Z,23.94
2022-08-12T11:18:03.609Z,23.94
2022-08-12T11:21:16.079Z,23.94
2022-08-12T11:24:32.441Z,24.00
2022-08-12T11:27:36.935Z,24.00
2022-08-12T11:30:41.777Z,24.00
2022-08-12T11:34:06.866Z,24.00
2022-08-12T11:37:25.716Z,24.06
2022-08-12T11:40:30.718Z,24.06
2022-08-12T11:43:33.064Z,24.13
2022-08-12T11:47:02.055Z,24.13
2022-08-12T11:50:20.932Z,24.19
2022-08-12T11:53:59.228Z,24.19
2022-08-12T11:58:07.556Z,24.19
2022-08-12T12:04:07.059Z,24.19
2022-08-12T12:07:18.871Z,24.25
2022-08-12T12:10:29.066Z,24.25
2022-08-12T12:14:06.239Z,24.25
2022-08-12T12:17:01.193Z,24.31
2022-08-12T12:20:11.520Z,24.31
2022-08-12T12:23:29.066Z,24.31
2022-08-12T12:26:36.957Z,24.38
2022-08-12T12:30:18.174Z,24.38
2022-08-12T12:33:25.843Z,24.38
2022-08-12T12:36:35.974Z,24.44
2022-08-12T12:39:50.157Z,24.44
2022-08-12T12:43:05.074Z,24.44
2022-08-12T12:46:16.201Z,24.44
2022-08-12T12:49:33.139Z,24.50
2022-08-12T12:52:55.192Z,24.50
2022-08-12T12:56:13.187Z,24.50
2022-08-12T12:59:55.310Z,24.56
2022-08-12T13:02:52.925Z,24.56
2022-08-12T13:06:10.212Z,24.56
2022-08-12T13:09:37.215Z,24.56
2022-08-12T13:12:52.130Z,24.63
2022-08-12T13:16:04.430Z,24.63
2022-08-12T13:19:25.101Z,24.63
2022-08-12T13:22:49.337Z,24.69
2022-08-12T13:26:00.358Z,24.69
2022-08-12T13:29:02.580Z,24.69
2022-08-12T13:32:28.093Z,24.69
2022-08-12T13:36:05.092Z,24.69
2022-08-12T13:39:04.287Z,24.69
2022-08-12T13:42:14.336Z,24.75
2022-08-12T13:45:19.903Z,24.75
2022-08-12T13:48:30.080Z,24.75
2022-08-12T13:51:40.667Z,24.75
2022-08-12T13:54:41.001Z,24.75
2022-08-12T13:57:47.286Z,24.81
2022-08-12T14:00:47.958Z,24.81
2022-08-12T14:04:00.372Z,24.81
2022-08-12T14:07:01.031Z,24.81
2022-08-12T14:10:31.263Z,24.81
2022-08-12T14:14:05.342Z,24.81
2022-08-12T14:17:10.917Z,24.81
2022-08-12T14:20:20.560Z,24.81
2022-08-12T14:24:05.307Z,24.88
2022-08-12T14:26:57.229Z,24.88
2022-08-12T14:30:15.351Z,24.88
2022-08-12T14:33:18.003Z,24.88
2022-08-12T14:36:17.790Z,24.88
2022-08-12T14:39:22.470Z,24.88
2022-08-12T14:42:35.297Z,24.88
2022-08-12T14:45:49.108Z,24.88
2022-08-12T14:48:51.891Z,24.88
2022-08-12T14:53:09.575Z,24.88
2022-08-12T14:59:23.118Z,24.88
2022-08-12T15:02:33.254Z,24.88
2022-08-12T15:06:05.908Z,24.88
2022-08-12T15:09:07.209Z,24.88
2022-08-12T15:12:14.739Z,24.94
2022-08-12T15:15:21.970Z,24.94
2022-08-12T15:18:25.078Z,24.94
2022-08-12T15:22:38.599Z,24.94
2022-08-12T15:24:58.185Z,24.94
2022-08-12T15:28:05.513Z,24.94
2022-08-12T15:31:27.768Z,24.94
2022-08-12T15:34:45.354Z,24.94
2022-08-12T15:38:10.410Z,24.94
2022-08-12T15:41:24.230Z,24.94
2022-08-12T15:44:37.965Z,24.94
2022-08-12T15:47:49.749Z,24.94
2022-08-12T15:50:55.094Z,24.94
2022-08-12T15:54:30.927Z,24.94
2022-08-12T15:57:28.294Z,25.00
2022-08-12T16:00:40.594Z,25.00
2022-08-12T16:04:00.043Z,25.00
2022-08-12T16:07:13.356Z,25.00
2022-08-12T16:10:17.739Z,25.00
2022-08-12T16:13:34.450Z,25.00
2022-08-12T16:16:41.781Z,25.00
2022-08-12T16:20:04.183Z,25.00
2022-08-12T16:23:26.482Z,25.00
2022-08-12T16:26:37.336Z,25.00
2022-08-12T16:29:53.056Z,25.06
2022-08-12T16:33:04.846Z,25.06
2022-08-12T16:36:07.740Z,25.06
2022-08-12T16:39:22.467Z,25.06
2022-08-12T16:42:36.290Z,25.06
2022-08-12T16:46:04.162Z,25.06
2022-08-12T16:49:13.749Z,25.06
2022-08-12T16:52:18.474Z,25.06
2022-08-12T16:55:25.496Z,25.06
2022-08-12T16:58:37.368Z,25.06
2022-08-12T17:01:45.795Z,25.06
2022-08-12T17:04:52.775Z,25.06
2022-08-12T17:08:01.245Z,25.00
2022-08-12T17:11:10.069Z,25.00
2022-08-12T17:14:25.027Z,25.00
2022-08-12T17:17:50.522Z,25.00
2022-08-12T17:21:19.757Z,25.00
2022-08-12T17:24:29.921Z,25.00
2022-08-12T17:27:46.350Z,25.00
2022-08-12T17:30:59.698Z,24.94
2022-08-12T17:34:17.466Z,24.94
2022-08-12T17:37:30.356Z,24.94
2022-08-12T17:40:37.212Z,24.94
2022-08-12T17:43:57.313Z,24.88
2022-08-12T17:46:58.956Z,24.88
2022-08-12T17:50:10.030Z,24.88
2022-08-12T17:53:17.189Z,24.88
2022-08-12T17:56:19.535Z,24.88
2022-08-12T17:59:48.043Z,24.88
2022-08-12T18:03:00.594Z,24.81
2022-08-12T18:06:13.850Z,24.81
2022-08-12T18:09:36.065Z,24.81
2022-08-12T18:12:48.881Z,24.81
2022-08-12T18:16:04.260Z,24.81
2022-08-12T18:19:15.979Z,24.75
2022-08-12T18:22:16.363Z,24.75
2022-08-12T18:26:15.969Z,24.75
2022-08-12T18:29:16.775Z,24.75
2022-08-12T18:32:35.039Z,24.75
2022-08-12T18:35:53.245Z,24.75
2022-08-12T18:39:01.498Z,24.69
2022-08-12T18:42:06.506Z,24.69
2022-08-12T18:45:19.759Z,24.69
2022-08-12T18:48:22.424Z,24.69
2022-08-12T18:51:45.601Z,24.63
2022-08-12T18:55:02.618Z,24.63
2022-08-12T18:58:15.143Z,24.63
2022-08-12T19:02:20.870Z,24.63
2022-08-12T19:04:55.632Z,24.63
2022-08-12T19:08:09.351Z,24.63
2022-08-12T19:11:41.492Z,24.63
2022-08-12T19:14:52.581Z,24.56
2022-08-12T19:18:17.529Z,24.56
2022-08-12T19:21:33.508Z,24.56
2022-08-12T19:25:03.746Z,24.56
2022-08-12T19:28:09.280Z,24.56
2022-08-12T19:31:56.890Z,24.56
2022-08-12T19:38:27.091Z,24.50
2022-08-12T19:41:42.827Z,24.50
2022-08-12T19:45:12.249Z,24.50
2022-08-12T19:48:21.523Z,24.50
2022-08-12T19:51:41.997Z,24.44
2022-08-12T19:54:56.036Z,24.44
2022-08-12T19:58:11.884Z,24.44
2022-08-12T20:01:41.087Z,24.38
2022-08-12T20:06:04.940Z,24.38
2022-08-12T20:08:36.245Z,24.38
2022-08-12T20:12:13.335Z,24.31
2022-08-12T20:15:44.385Z,24.31
2022-08-12T20:18:58.021Z,24.31
2022-08-12T20:22:04.254Z,24.31
2022-08-12T20:25:12.078Z,24.25
2022-08-12T20:28:17.575Z,24.25
2022-08-12T20:31:25.333Z,24.25
2022-08-12T20:34:34.053Z,24.19
2022-08-12T20:38:06.941Z,24.19
2022-08-12T20:41:02.556Z,24.19
2022-08-12T20:44:22.435Z,24.19
2022-08-12T20:47:21.416Z,24.13
2022-08-12T20:50:34.161Z,24.13
2022-08-12T20:53:58.222Z,24.13
2022-08-12T20:57:09.957Z,24.13
2022-08-12T21:00:28.276Z,24.13
2022-08-12T21:03:52.689Z,24.13
2022-08-12T21:07:17.252Z,24.06
2022-08-12T21:10:29.546Z,24.06
2022-08-12T21:13:42.321Z,24.06
2022-08-12T21:16:52.477Z,24.06
2022-08-12T21:20:05.966Z,24.06
2022-08-12T21:23:25.535Z,24.00
2022-08-12T21:26:32.320Z,24.00
2022-08-12T21:29:40.047Z,24.00
2022-08-12T21:32:56.497Z,24.00
2022-08-12T21:36:02.902Z,24.00
2022-08-12T21:39:18.691Z,23.94
2022-08-12T21:42:27.770Z,23.94
2022-08-12T21:45:48.035Z,23.94
2022-08-12T21:49:05.651Z,23.94
2022-08-12T21:52:12.133Z,23.94
2022-08-12T21:55:20.454Z,23.94
2022-08-12T21:58:22.197Z,23.88
2022-08-12T22:01:24.565Z,23.88
2022-08-12T22:04:53.634Z,23.88
2022-08-12T22:08:03.952Z,23.88
2022-08-12T22:11:03.722Z,23.88
2022-08-12T22:14:08.790Z,23.88
2022-08-12T22:17:06.745Z,23.88
2022-08-12T22:20:11.977Z,23.88
2022-08-12T22:23:21.582Z,23.81
2022-08-12T22:26:37.585Z,23.81
2022-08-12T22:29:56.638Z,23.81
2022-08-12T22:33:02.273Z,23.81
2022-08-12T22:36:05.055Z,23.81
2022-08-12T22:39:04.977Z,23.81
2022-08-12T22:42:24.355Z,23.81
2022-08-12T22:45:48.507Z,23.75
2022-08-12T22:48:56.535Z,23.81
2022-08-12T22:52:00.142Z,23.75
2022-08-12T22:55:05.278Z,23.75
2022-08-12T22:58:07.361Z,23.75
2022-08-12T23:01:21.175Z,23.75
2022-08-12T23:04:35.674Z,23.75
2022-08-12T23:07:36.041Z,23.75
2022-08-12T23:10:52.422Z,23.75
2022-08-12T23:13:58.049Z,23.75
2022-08-12T23:17:02.276Z,23.69
2022-08-12T23:20:02.505Z,23.69
2022-08-12T23:23:08.929Z,23.69
2022-08-12T23:26:10.333Z,23.69
2022-08-12T23:29:30.188Z,23.69
2022-08-12T23:32:39.339Z,23.69
2022-08-12T23:35:54.038Z,23.69
2022-08-12T23:38:58.884Z,23.69
2022-08-12T23:42:18.105Z,23.69
2022-08-12T23:45:20.327Z,23.69
2022-08-12T23:48:35.872Z,23.69
2022-08-12T23:51:36.109Z,23.69
2022-08-12T23:54:44.030Z,23.69
2022-08-12T23:58:17.755Z,23.69
